KMTO/MTO METAR and TAF weather

Enter ICAO airport designator
Station Type Date Time Source
KMTO METAR 2021/04/18 02:53 UTC NOAA

KMTO 180253Z AUTO 26005KT 10SM SCT100 10/05 A2995 RMK AO2 SLP143 T01000050 51010 $


Station Type Date Time Source
KMTO Decoded METAR 2021/04/18 02:53 UTC NOAA

MATTOON/CHARLESTON COLES CO, IL, United States (KMTO) 39-28N 88-16W 214M
Apr 17, 2021 - 10:53 PM EDT / 2021.04.18 0253 UTC
Wind: from the W (260 degrees) at 6 MPH (5 KT):0
Visibility: 10 mile(s):0
Sky conditions: partly cloudy
Temperature: 50.0 F (10.0 C)
Dew Point: 41.0 F (5.0 C)
Relative Humidity: 71%
Pressure (altimeter): 29.95 in. Hg (1014 hPa)
Pressure tendency: 0.03 inches (1.0 hPa) higher than three hours ago
ob: KMTO 180253Z AUTO 26005KT 10SM SCT100 10/05 A2995 RMK AO2 SLP143 T01000050 51010
cycle: 3

Station Type Date Time Source
KMTO TAF UTC NOAA

Error!

Example: see airport list